RJOZ(METAR)
05/30 17:00
METAR RJOZ 300800Z 11008KT 9999 FEW030 BKN/// 24/13 Q1015 RMK 1CU030
A2999=
戻る
トップページへ戻る
IMOC Co,.Ltd.